createdAt,value
2024-03-02T00:00:53.092Z,96109.69
2024-03-02T00:03:42.081Z,96108.55
2024-03-02T00:06:10.483Z,96110.63
2024-03-02T00:08:39.090Z,96111.98
2024-03-02T00:11:07.544Z,96108.16
2024-03-02T00:13:37.162Z,96111.15
2024-03-02T00:16:06.831Z,96104.85
2024-03-02T00:18:36.272Z,96099.54
2024-03-02T00:21:05.213Z,96096.54
2024-03-02T00:23:33.703Z,96095.55
2024-03-02T00:26:02.316Z,96097.16
2024-03-02T00:28:35.424Z,96097.39
2024-03-02T00:31:04.782Z,96096.99
2024-03-02T00:33:35.246Z,96099.81
2024-03-02T00:36:07.910Z,96103.83
2024-03-02T00:38:41.249Z,96104.11
2024-03-02T00:41:09.502Z,96103.77
2024-03-02T00:44:07.526Z,96095.46
2024-03-02T00:46:36.452Z,96089.33
2024-03-02T00:49:06.018Z,96090.55
2024-03-02T00:51:35.215Z,96086.45
2024-03-02T00:54:08.593Z,96085.93
2024-03-02T00:56:37.065Z,96082.14
2024-03-02T00:59:05.483Z,96084.14
2024-03-02T01:01:34.091Z,96087.39
2024-03-02T01:04:02.474Z,96092.55
2024-03-02T01:06:31.669Z,96100.60
2024-03-02T01:08:59.897Z,96103.77
2024-03-02T01:11:28.871Z,96099.56
2024-03-02T01:13:57.084Z,96097.11
2024-03-02T01:16:25.305Z,96093.77
2024-03-02T01:18:53.768Z,96093.70
2024-03-02T01:21:22.042Z,96092.68
2024-03-02T01:23:50.263Z,96083.36
2024-03-02T01:26:18.377Z,96077.59
2024-03-02T01:28:46.675Z,96073.32
2024-03-02T01:31:14.937Z,96070.08
2024-03-02T01:33:43.232Z,96066.88
2024-03-02T01:36:11.395Z,96065.57
2024-03-02T01:38:39.634Z,96070.85
2024-03-02T01:41:07.669Z,96067.80
2024-03-02T01:43:38.109Z,96072.73
2024-03-02T01:46:07.568Z,96075.29
2024-03-02T01:48:35.945Z,96080.20
2024-03-02T01:51:05.269Z,96084.14
2024-03-02T01:53:33.536Z,96081.08
2024-03-02T01:56:02.703Z,96078.46
2024-03-02T01:58:30.979Z,96077.09
2024-03-02T02:00:59.341Z,96074.92
2024-03-02T02:03:27.634Z,96073.19
2024-03-02T02:05:55.834Z,96074.41
2024-03-02T02:08:24.095Z,96070.23
2024-03-02T02:10:52.546Z,96067.95
2024-03-02T02:13:20.962Z,96067.43
2024-03-02T02:15:49.195Z,96067.06
2024-03-02T02:18:17.313Z,96071.32
2024-03-02T02:20:45.407Z,96068.25
2024-03-02T02:23:14.804Z,96068.23
2024-03-02T02:25:43.360Z,96062.41
2024-03-02T02:28:11.581Z,96057.15
2024-03-02T02:30:39.753Z,96058.11
2024-03-02T02:33:08.041Z,96051.58
2024-03-02T02:35:36.388Z,96047.42
2024-03-02T02:38:04.818Z,96041.09
2024-03-02T02:40:33.016Z,96037.05
2024-03-02T02:43:01.244Z,96035.02
2024-03-02T02:45:29.566Z,96025.02
2024-03-02T02:47:57.825Z,96019.89
2024-03-02T02:50:25.892Z,96017.41
2024-03-02T02:52:54.193Z,96012.10
2024-03-02T02:55:22.273Z,96013.96
2024-03-02T02:57:50.908Z,96011.70
2024-03-02T03:00:21.325Z,96011.60
2024-03-02T03:02:51.392Z,96016.36
2024-03-02T03:05:20.295Z,96015.24
2024-03-02T03:07:51.384Z,96013.36
2024-03-02T03:10:21.774Z,96009.08
2024-03-02T03:12:50.557Z,96003.67
2024-03-02T03:15:18.776Z,96007.25
2024-03-02T03:17:48.688Z,96010.23
2024-03-02T03:20:17.274Z,96007.81
2024-03-02T03:22:45.704Z,96004.18
2024-03-02T03:25:13.875Z,96000.36
2024-03-02T03:27:42.925Z,96000.73
2024-03-02T03:30:12.228Z,96005.58
2024-03-02T03:32:40.392Z,95999.30
2024-03-02T03:35:09.016Z,95998.95
2024-03-02T03:37:37.361Z,95995.05
2024-03-02T03:40:11.561Z,95997.77
2024-03-02T03:42:40.506Z,96001.63
2024-03-02T03:45:09.555Z,96002.52
2024-03-02T03:47:37.849Z,96000.52
2024-03-02T03:50:08.520Z,96003.67
2024-03-02T03:52:37.138Z,96000.29
2024-03-02T03:55:07.017Z,95999.39
2024-03-02T03:57:35.348Z,95999.00
2024-03-02T04:00:04.646Z,95995.35
2024-03-02T04:02:40.346Z,95995.95
2024-03-02T04:05:12.159Z,95995.84
2024-03-02T04:07:44.328Z,95998.15
2024-03-02T04:10:14.045Z,95999.02
2024-03-02T04:12:42.383Z,95993.19
2024-03-02T04:15:10.619Z,95999.30
2024-03-02T04:17:38.781Z,95993.13
2024-03-02T04:20:07.747Z,95992.64
2024-03-02T04:22:36.854Z,95993.98
2024-03-02T04:25:08.727Z,95995.42
2024-03-02T04:27:37.543Z,95996.06
2024-03-02T04:30:06.688Z,95994.14
2024-03-02T04:32:35.208Z,95991.16
2024-03-02T04:35:03.455Z,95987.33
2024-03-02T04:37:32.219Z,95991.88
2024-03-02T04:40:00.511Z,95988.85
2024-03-02T04:42:28.949Z,95991.14
2024-03-02T04:44:57.079Z,95991.54
2024-03-02T04:47:25.258Z,95994.13
2024-03-02T04:49:53.420Z,95994.16
2024-03-02T04:52:21.515Z,95997.23
2024-03-02T04:55:08.364Z,95991.96
2024-03-02T04:57:36.712Z,95993.25
2024-03-02T05:00:08.851Z,95994.98
2024-03-02T05:02:37.189Z,96000.55
2024-03-02T05:05:05.563Z,96000.44
2024-03-02T05:07:33.786Z,95997.05
2024-03-02T05:10:02.072Z,95998.20
2024-03-02T05:12:50.527Z,95999.91
2024-03-02T05:15:18.946Z,95997.89
2024-03-02T05:17:47.105Z,95996.39
2024-03-02T05:20:15.297Z,95999.08
2024-03-02T05:22:43.379Z,95993.36
2024-03-02T05:25:12.148Z,95994.77
2024-03-02T05:27:40.783Z,95995.06
2024-03-02T05:30:09.937Z,96001.70
2024-03-02T05:32:38.495Z,95998.48
2024-03-02T05:35:07.364Z,95998.61
2024-03-02T05:37:35.493Z,95998.05
2024-03-02T05:40:04.240Z,96000.64
2024-03-02T05:42:32.409Z,96000.80
2024-03-02T05:45:00.776Z,96003.40
2024-03-02T05:47:29.390Z,96008.21
2024-03-02T05:49:57.800Z,96012.86
2024-03-02T05:52:26.009Z,96013.79
2024-03-02T05:54:54.463Z,96011.29
2024-03-02T05:57:41.118Z,96011.20
2024-03-02T06:00:09.747Z,96013.13
2024-03-02T06:02:43.444Z,96019.00
2024-03-02T06:05:11.642Z,96016.66
2024-03-02T06:07:39.738Z,96018.82
2024-03-02T06:10:13.756Z,96019.52
2024-03-02T06:12:42.582Z,96023.52
2024-03-02T06:15:12.148Z,96020.56
2024-03-02T06:17:40.294Z,96025.55
2024-03-02T06:20:09.839Z,96021.80
2024-03-02T06:22:38.609Z,96028.48
2024-03-02T06:25:07.396Z,96028.32
2024-03-02T06:27:35.808Z,96026.95
2024-03-02T06:30:05.383Z,96028.59
2024-03-02T06:32:33.908Z,96032.02
2024-03-02T06:35:02.478Z,96031.23
2024-03-02T06:37:30.583Z,96033.44
2024-03-02T06:39:59.006Z,96036.27
2024-03-02T06:42:27.545Z,96035.66
2024-03-02T06:44:55.697Z,96034.62
2024-03-02T06:47:24.058Z,96035.55
2024-03-02T06:49:52.627Z,96038.77
2024-03-02T06:52:24.890Z,96041.77
2024-03-02T06:54:53.522Z,96042.48
2024-03-02T06:57:22.267Z,96045.38
2024-03-02T06:59:52.645Z,96044.11
2024-03-02T07:02:21.261Z,96043.45
2024-03-02T07:04:49.894Z,96042.88
2024-03-02T07:07:18.139Z,96048.03
2024-03-02T07:09:46.831Z,96049.76
2024-03-02T07:12:15.231Z,96048.99
2024-03-02T07:15:02.072Z,96046.23
2024-03-02T07:17:30.636Z,96048.98
2024-03-02T07:19:59.193Z,96045.25
2024-03-02T07:22:27.199Z,96041.46
2024-03-02T07:24:55.362Z,96039.70
2024-03-02T07:27:23.554Z,96037.39
2024-03-02T07:29:51.601Z,96035.84
2024-03-02T07:32:19.992Z,96039.96
2024-03-02T07:34:48.143Z,96036.84
2024-03-02T07:37:16.368Z,96037.66
2024-03-02T07:39:45.758Z,96041.41
2024-03-02T07:42:13.781Z,96041.87
2024-03-02T07:44:42.331Z,96044.33
2024-03-02T07:47:10.465Z,96045.13
2024-03-02T07:49:38.564Z,96047.30
2024-03-02T07:52:06.827Z,96047.59
2024-03-02T07:54:35.161Z,96048.93
2024-03-02T07:57:03.444Z,96047.04
2024-03-02T07:59:31.610Z,96046.09
2024-03-02T08:01:59.826Z,96043.81
2024-03-02T08:04:28.000Z,96044.85
2024-03-02T08:06:56.521Z,96044.78
2024-03-02T08:09:25.149Z,96041.61
2024-03-02T08:11:53.321Z,96040.98
2024-03-02T08:14:21.846Z,96042.37
2024-03-02T08:16:49.921Z,96040.95
2024-03-02T08:19:18.177Z,96039.21
2024-03-02T08:21:46.588Z,96038.36
2024-03-02T08:24:14.730Z,96038.30
2024-03-02T08:26:43.191Z,96034.51
2024-03-02T08:29:11.331Z,96029.75
2024-03-02T08:31:42.153Z,96035.45
2024-03-02T08:34:10.893Z,96034.77
2024-03-02T08:36:39.506Z,96037.30
2024-03-02T08:39:16.237Z,96036.58
2024-03-02T08:41:47.543Z,96039.38
2024-03-02T08:44:15.768Z,96045.82
2024-03-02T08:46:43.892Z,96048.36
2024-03-02T08:49:12.093Z,96049.42
2024-03-02T08:51:40.340Z,96048.19
2024-03-02T08:54:09.027Z,96047.71
2024-03-02T08:56:37.299Z,96050.30
2024-03-02T08:59:05.523Z,96048.33
2024-03-02T09:01:34.058Z,96055.71
2024-03-02T09:04:02.230Z,96055.86
2024-03-02T09:06:30.455Z,96054.79
2024-03-02T09:08:58.454Z,96049.55
2024-03-02T09:11:26.841Z,96051.34
2024-03-02T09:13:56.005Z,96050.61
2024-03-02T09:16:24.290Z,96054.60
2024-03-02T09:18:52.470Z,96059.13
2024-03-02T09:21:20.602Z,96059.29
2024-03-02T09:23:49.538Z,96059.33
2024-03-02T09:26:17.927Z,96058.13
2024-03-02T09:28:46.155Z,96056.91
2024-03-02T09:31:14.283Z,96056.40
2024-03-02T09:33:42.451Z,96061.64
2024-03-02T09:36:23.393Z,96059.98
2024-03-02T09:38:51.689Z,96061.23
2024-03-02T09:41:20.783Z,96057.77
2024-03-02T09:43:49.265Z,96060.31
2024-03-02T09:46:17.495Z,96060.20
2024-03-02T09:48:46.222Z,96061.84
2024-03-02T09:51:14.310Z,96061.86
2024-03-02T09:53:42.779Z,96063.44
2024-03-02T09:56:10.770Z,96058.84
2024-03-02T09:58:40.012Z,96057.13
2024-03-02T10:01:08.412Z,96057.52
2024-03-02T10:03:38.545Z,96050.23
2024-03-02T10:06:39.882Z,96050.54
2024-03-02T10:09:08.105Z,96051.91
2024-03-02T10:11:38.463Z,96053.09
2024-03-02T10:14:11.284Z,96052.55
2024-03-02T10:16:43.210Z,96051.00
2024-03-02T10:19:21.444Z,96051.02
2024-03-02T10:21:53.156Z,96052.50
2024-03-02T10:24:23.017Z,96052.54
2024-03-02T10:26:51.681Z,96051.91
2024-03-02T10:29:19.956Z,96053.77
2024-03-02T10:31:48.032Z,96053.98
2024-03-02T10:34:17.493Z,96049.84
2024-03-02T10:36:46.829Z,96048.10
2024-03-02T10:39:15.747Z,96048.79
2024-03-02T10:41:43.806Z,96044.79
2024-03-02T10:44:12.216Z,96042.42
2024-03-02T10:46:40.408Z,96042.38
2024-03-02T10:49:09.529Z,96043.71
2024-03-02T10:51:39.040Z,96039.11
2024-03-02T10:54:10.242Z,96038.16
2024-03-02T10:56:40.756Z,96031.21
2024-03-02T10:59:21.211Z,96028.20
2024-03-02T11:01:49.733Z,96030.11
2024-03-02T11:04:19.385Z,96026.61
2024-03-02T11:06:51.058Z,96024.41
2024-03-02T11:09:26.999Z,96017.88
2024-03-02T11:12:19.638Z,96009.27
2024-03-02T11:14:47.782Z,96009.66
2024-03-02T11:17:18.695Z,96009.77
2024-03-02T11:19:46.875Z,96007.65
2024-03-02T11:22:14.913Z,96004.80
2024-03-02T11:24:53.260Z,96000.73
2024-03-02T11:27:46.316Z,96000.11
2024-03-02T11:30:33.141Z,95999.34
2024-03-02T11:33:12.695Z,95989.88
2024-03-02T11:35:48.525Z,95985.66
2024-03-02T11:38:16.620Z,95984.95
2024-03-02T11:40:44.602Z,95983.55
2024-03-02T11:43:12.769Z,95984.85
2024-03-02T11:45:45.287Z,95986.22
2024-03-02T11:48:17.268Z,95984.35
2024-03-02T11:50:50.728Z,95987.91
2024-03-02T11:53:19.482Z,95990.15
2024-03-02T11:55:48.222Z,95990.29
2024-03-02T11:58:22.015Z,95988.73
2024-03-02T12:00:52.141Z,95987.86
2024-03-02T12:03:21.973Z,95988.75
2024-03-02T12:05:56.539Z,95989.40
2024-03-02T12:08:24.979Z,95984.58
2024-03-02T12:11:00.212Z,95984.73
2024-03-02T12:13:28.335Z,95982.45
2024-03-02T12:15:59.712Z,95979.48
2024-03-02T12:18:28.343Z,95978.73
2024-03-02T12:20:59.057Z,95979.07
2024-03-02T12:23:27.783Z,95976.08
2024-03-02T12:25:56.129Z,95972.52
2024-03-02T12:28:24.301Z,95970.19
2024-03-02T12:30:52.962Z,95965.61
2024-03-02T12:33:21.313Z,95966.45
2024-03-02T12:35:50.645Z,95964.04
2024-03-02T12:38:18.922Z,95966.72
2024-03-02T12:40:49.543Z,95964.46
2024-03-02T12:43:17.694Z,95957.17
2024-03-02T12:45:46.261Z,95961.35
2024-03-02T12:48:14.519Z,95959.38
2024-03-02T12:50:42.904Z,95955.39
2024-03-02T12:53:15.773Z,95956.34
2024-03-02T12:55:45.507Z,95959.41
2024-03-02T12:58:23.216Z,95956.61
2024-03-02T13:00:51.590Z,95963.98
2024-03-02T13:03:22.114Z,95965.05
2024-03-02T13:05:51.216Z,95966.37
2024-03-02T13:08:19.508Z,95965.02
2024-03-02T13:10:47.710Z,95966.25
2024-03-02T13:13:15.982Z,95967.98
2024-03-02T13:15:44.471Z,95964.31
2024-03-02T13:18:12.817Z,95964.30
2024-03-02T13:20:41.178Z,95963.61
2024-03-02T13:23:09.465Z,95966.72
2024-03-02T13:25:37.491Z,95965.55
2024-03-02T13:28:06.347Z,95962.02
2024-03-02T13:30:35.218Z,95965.30
2024-03-02T13:33:03.486Z,95965.05
2024-03-02T13:35:31.654Z,95958.50
2024-03-02T13:38:00.333Z,95956.73
2024-03-02T13:40:29.018Z,95954.69
2024-03-02T13:42:57.278Z,95958.62
2024-03-02T13:45:25.483Z,95958.61
2024-03-02T13:47:53.768Z,95959.68
2024-03-02T13:50:22.021Z,95958.71
2024-03-02T13:52:50.126Z,95962.17
2024-03-02T13:55:18.773Z,95962.52
2024-03-02T13:57:47.833Z,95961.40
2024-03-02T14:00:16.880Z,95962.34
2024-03-02T14:02:45.238Z,95960.70
2024-03-02T14:05:14.994Z,95960.67
2024-03-02T14:07:43.262Z,95958.41
2024-03-02T14:10:11.461Z,95959.24
2024-03-02T14:12:39.628Z,95958.09
2024-03-02T14:15:08.411Z,95960.05
2024-03-02T14:17:36.717Z,95959.85
2024-03-02T14:20:06.204Z,95959.91
2024-03-02T14:22:35.417Z,95958.77
2024-03-02T14:25:03.768Z,95962.02
2024-03-02T14:27:44.386Z,95961.95
2024-03-02T14:30:20.210Z,95964.77
2024-03-02T14:32:48.328Z,95965.98
2024-03-02T14:35:16.512Z,95967.48
2024-03-02T14:37:44.692Z,95973.95
2024-03-02T14:40:13.944Z,95975.99
2024-03-02T14:42:43.389Z,95978.45
2024-03-02T14:45:11.706Z,95976.28
2024-03-02T14:47:39.911Z,95973.98
2024-03-02T14:50:08.467Z,95974.95
2024-03-02T14:52:37.003Z,95972.27
2024-03-02T14:55:08.780Z,95974.22
2024-03-02T14:57:37.253Z,95973.26
2024-03-02T15:00:08.863Z,95972.45
2024-03-02T15:02:37.008Z,95973.96
2024-03-02T15:05:07.072Z,95977.35
2024-03-02T15:07:35.270Z,95982.91
2024-03-02T15:10:05.534Z,95984.52
2024-03-02T15:12:34.117Z,95987.10
2024-03-02T15:15:02.524Z,95988.36
2024-03-02T15:17:30.749Z,95993.09
2024-03-02T15:19:58.933Z,95991.70
2024-03-02T15:22:27.272Z,95993.94
2024-03-02T15:24:55.307Z,95990.61
2024-03-02T15:27:23.536Z,95993.40
2024-03-02T15:29:53.371Z,95995.67
2024-03-02T15:32:21.642Z,96002.51
2024-03-02T15:34:49.866Z,95999.31
2024-03-02T15:37:18.593Z,96007.94
2024-03-02T15:39:46.735Z,96007.64
2024-03-02T15:42:14.861Z,96007.83
2024-03-02T15:44:45.246Z,96006.42
2024-03-02T15:47:13.636Z,96011.46
2024-03-02T15:49:41.902Z,96013.02
2024-03-02T15:52:10.397Z,96012.36
2024-03-02T15:54:38.704Z,96014.73
2024-03-02T15:57:07.074Z,96016.45
2024-03-02T15:59:35.198Z,96013.71
2024-03-02T16:02:04.907Z,96014.09
2024-03-02T16:04:33.103Z,96018.34
2024-03-02T16:07:01.220Z,96017.71
2024-03-02T16:09:29.411Z,96018.98
2024-03-02T16:11:57.646Z,96014.86
2024-03-02T16:14:26.039Z,96013.23
2024-03-02T16:16:54.080Z,96014.02
2024-03-02T16:19:29.750Z,96015.76
2024-03-02T16:22:01.460Z,96019.95
2024-03-02T16:24:29.669Z,96021.88
2024-03-02T16:26:57.968Z,96025.78
2024-03-02T16:29:26.085Z,96030.84
2024-03-02T16:31:54.161Z,96030.19
2024-03-02T16:34:22.341Z,96030.23
2024-03-02T16:36:50.687Z,96029.23
2024-03-02T16:39:18.899Z,96029.98
2024-03-02T16:41:48.159Z,96030.95
2024-03-02T16:44:16.596Z,96027.95
2024-03-02T16:46:46.318Z,96033.17
2024-03-02T16:49:14.627Z,96034.86
2024-03-02T16:51:43.123Z,96039.66
2024-03-02T16:54:11.469Z,96043.71
2024-03-02T16:56:40.672Z,96046.23
2024-03-02T16:59:09.053Z,96048.03
2024-03-02T17:01:37.542Z,96045.91
2024-03-02T17:04:06.893Z,96048.67
2024-03-02T17:06:35.207Z,96047.80
2024-03-02T17:09:03.741Z,96043.29
2024-03-02T17:11:32.218Z,96040.02
2024-03-02T17:14:01.013Z,96044.49
2024-03-02T17:16:29.229Z,96045.69
2024-03-02T17:18:58.064Z,96041.68
2024-03-02T17:21:26.496Z,96041.59
2024-03-02T17:23:54.663Z,96041.41
2024-03-02T17:26:22.858Z,96044.69
2024-03-02T17:28:51.032Z,96044.46
2024-03-02T17:31:19.232Z,96048.73
2024-03-02T17:33:47.400Z,96048.80
2024-03-02T17:36:15.649Z,96044.12
2024-03-02T17:38:43.843Z,96046.21
2024-03-02T17:41:12.348Z,96046.80
2024-03-02T17:43:40.891Z,96040.37
2024-03-02T17:46:09.122Z,96036.27
2024-03-02T17:48:37.478Z,96034.83
2024-03-02T17:51:11.218Z,96037.44
2024-03-02T17:53:39.636Z,96034.34
2024-03-02T17:56:10.677Z,96035.28
2024-03-02T17:58:39.266Z,96032.77
2024-03-02T18:01:07.774Z,96031.12
2024-03-02T18:03:35.928Z,96032.48
2024-03-02T18:06:05.437Z,96033.43
2024-03-02T18:08:35.353Z,96032.34
2024-03-02T18:11:05.110Z,96035.50
2024-03-02T18:13:35.055Z,96033.72
2024-03-02T18:16:03.540Z,96034.23
2024-03-02T18:18:33.089Z,96037.27
2024-03-02T18:21:01.440Z,96037.47
2024-03-02T18:23:30.358Z,96037.80
2024-03-02T18:25:58.587Z,96036.77
2024-03-02T18:28:27.024Z,96039.80
2024-03-02T18:30:55.404Z,96037.64
2024-03-02T18:33:23.811Z,96040.20
2024-03-02T18:35:52.155Z,96041.26
2024-03-02T18:38:20.586Z,96040.84
2024-03-02T18:40:48.912Z,96045.16
2024-03-02T18:43:17.061Z,96044.95
2024-03-02T18:45:45.470Z,96042.23
2024-03-02T18:48:13.807Z,96045.06
2024-03-02T18:50:42.063Z,96042.05
2024-03-02T18:53:12.488Z,96043.17
2024-03-02T18:55:42.178Z,96041.67
2024-03-02T18:58:10.467Z,96039.44
2024-03-02T19:00:39.719Z,96037.84
2024-03-02T19:03:10.854Z,96040.92
2024-03-02T19:05:39.646Z,96041.77
2024-03-02T19:08:09.201Z,96041.93
2024-03-02T19:10:37.332Z,96043.86
2024-03-02T19:13:07.102Z,96047.55
2024-03-02T19:15:35.565Z,96050.24
2024-03-02T19:18:04.511Z,96048.05
2024-03-02T19:20:32.777Z,96049.01
2024-03-02T19:23:01.456Z,96046.80
2024-03-02T19:25:29.735Z,96049.91
2024-03-02T19:27:58.238Z,96048.02
2024-03-02T19:30:27.090Z,96050.73
2024-03-02T19:32:55.583Z,96050.95
2024-03-02T19:35:23.793Z,96053.07
2024-03-02T19:37:53.057Z,96053.63
2024-03-02T19:40:21.205Z,96053.01
2024-03-02T19:42:49.329Z,96055.23
2024-03-02T19:45:17.670Z,96058.25
2024-03-02T19:47:45.813Z,96057.66
2024-03-02T19:50:15.280Z,96058.71
2024-03-02T19:52:43.408Z,96062.30
2024-03-02T19:55:13.858Z,96061.31
2024-03-02T19:57:45.822Z,96061.52
2024-03-02T20:00:17.942Z,96063.05
2024-03-02T20:02:46.143Z,96062.75
2024-03-02T20:05:16.111Z,96063.30
2024-03-02T20:07:44.304Z,96066.92
2024-03-02T20:10:13.037Z,96069.46
2024-03-02T20:12:41.305Z,96074.23
2024-03-02T20:15:20.876Z,96075.95
2024-03-02T20:17:49.180Z,96072.86
2024-03-02T20:20:17.765Z,96078.83
2024-03-02T20:22:47.020Z,96076.49
2024-03-02T20:25:16.951Z,96077.00
2024-03-02T20:27:46.428Z,96078.70
2024-03-02T20:30:14.834Z,96078.52
2024-03-02T20:32:43.435Z,96078.85
2024-03-02T20:35:12.548Z,96082.70
2024-03-02T20:37:41.196Z,96084.23
2024-03-02T20:40:10.166Z,96084.80
2024-03-02T20:42:39.035Z,96085.83
2024-03-02T20:45:07.619Z,96086.20
2024-03-02T20:47:35.656Z,96088.88
2024-03-02T20:50:04.052Z,96089.85
2024-03-02T20:52:32.165Z,96093.14
2024-03-02T20:55:00.347Z,96092.43
2024-03-02T20:57:30.210Z,96095.14
2024-03-02T20:59:58.336Z,96094.48
2024-03-02T21:02:26.776Z,96092.35
2024-03-02T21:04:55.107Z,96090.10
2024-03-02T21:07:23.844Z,96094.27
2024-03-02T21:09:53.880Z,96094.30
2024-03-02T21:12:22.213Z,96098.27
2024-03-02T21:14:50.539Z,96095.27
2024-03-02T21:17:18.693Z,96093.40
2024-03-02T21:19:48.294Z,96094.73
2024-03-02T21:22:16.896Z,96094.36
2024-03-02T21:24:47.172Z,96097.36
2024-03-02T21:27:18.493Z,96096.23
2024-03-02T21:29:48.147Z,96093.65
2024-03-02T21:32:16.224Z,96096.46
2024-03-02T21:34:44.628Z,96095.47
2024-03-02T21:37:12.814Z,96099.30
2024-03-02T21:39:46.914Z,96103.80
2024-03-02T21:42:15.884Z,96096.96
2024-03-02T21:44:44.012Z,96098.55
2024-03-02T21:47:12.368Z,96099.34
2024-03-02T21:49:40.515Z,96097.91
2024-03-02T21:52:08.811Z,96099.44
2024-03-02T21:54:37.189Z,96096.94
2024-03-02T21:57:10.330Z,96096.69
2024-03-02T21:59:38.862Z,96099.13
2024-03-02T22:02:06.970Z,96095.92
2024-03-02T22:04:35.205Z,96095.55
2024-03-02T22:07:03.846Z,96101.70
2024-03-02T22:09:32.068Z,96103.48
2024-03-02T22:12:02.137Z,96103.13
2024-03-02T22:14:30.386Z,96105.42
2024-03-02T22:16:58.654Z,96103.84
2024-03-02T22:19:26.782Z,96103.70
2024-03-02T22:21:54.894Z,96105.63
2024-03-02T22:24:24.528Z,96104.40
2024-03-02T22:26:53.517Z,96105.84
2024-03-02T22:29:21.733Z,96106.09
2024-03-02T22:31:49.958Z,96104.98
2024-03-02T22:34:18.180Z,96108.34
2024-03-02T22:36:46.227Z,96107.27
2024-03-02T22:39:14.331Z,96103.23
2024-03-02T22:41:42.426Z,96103.61
2024-03-02T22:44:10.600Z,96106.26
2024-03-02T22:46:38.764Z,96101.50
2024-03-02T22:49:07.199Z,96102.91
2024-03-02T22:51:35.594Z,96104.23
2024-03-02T22:54:03.814Z,96106.27
2024-03-02T22:56:32.092Z,96106.98
2024-03-02T22:59:00.248Z,96104.78
2024-03-02T23:01:28.497Z,96105.10
2024-03-02T23:03:56.807Z,96107.61
2024-03-02T23:06:24.990Z,96108.83
2024-03-02T23:08:53.120Z,96109.74
2024-03-02T23:11:21.256Z,96103.58
2024-03-02T23:13:49.882Z,96105.66
2024-03-02T23:16:18.018Z,96102.77
2024-03-02T23:18:46.380Z,96104.07
2024-03-02T23:21:15.172Z,96103.76
2024-03-02T23:23:43.183Z,96101.75
2024-03-02T23:26:11.348Z,96102.73
2024-03-02T23:28:39.404Z,96100.15
2024-03-02T23:31:07.703Z,96100.27
2024-03-02T23:33:35.856Z,96102.98
2024-03-02T23:36:04.363Z,96102.06
2024-03-02T23:38:32.505Z,96098.86
2024-03-02T23:41:11.212Z,96099.27
2024-03-02T23:43:39.607Z,96104.46
2024-03-02T23:46:08.930Z,96103.42
2024-03-02T23:48:37.310Z,96104.12
2024-03-02T23:51:05.630Z,96101.84
2024-03-02T23:53:34.094Z,96101.84
2024-03-02T23:56:12.469Z,96101.25
2024-03-02T23:58:40.828Z,96102.62
